Terminal Aerodrome Forecast
Issued by NWS

Current Version | Previous Version | Text Only | Print | Product List | Glossary On
Versions: 1 2 3 4 5 6 7 8 9 10 11 12 13 14 15 16 17 18
000
FTUS43 KLSX 210751 AAA
TAFUIN
TAF AMD
KUIN 210751Z 2108/2206 VRB04KT 4SM -SHRA BR OVC040
      TEMPO 2108/2110 1SM -SHRA BR
     FM211000 VRB04KT 4SM BR BKN025
     FM211600 VRB05KT P6SM BKN035
     FM212100 VRB05KT P6SM SKC=

USA.gov is the U.S. government's official web portal to all federal, state and local government web resources and services.